createdAt,value
2019-02-12T00:00:38.363Z,3.31
2019-02-12T00:01:38.352Z,3.36
2019-02-12T00:02:38.356Z,3.30
2019-02-12T00:03:38.328Z,3.31
2019-02-12T00:04:38.323Z,3.34
2019-02-12T00:05:38.308Z,3.25
2019-02-12T00:06:38.295Z,3.31
2019-02-12T00:07:38.324Z,3.30
2019-02-12T00:08:38.276Z,3.34
2019-02-12T00:09:38.268Z,3.28
2019-02-12T00:10:38.260Z,3.23
2019-02-12T00:11:38.275Z,3.34
2019-02-12T00:12:38.238Z,3.36
2019-02-12T00:13:38.238Z,3.27
2019-02-12T00:14:38.217Z,3.28
2019-02-12T00:15:38.206Z,3.39
2019-02-12T00:16:38.201Z,3.40
2019-02-12T00:17:38.226Z,3.36
2019-02-12T00:18:38.166Z,3.31
2019-02-12T00:19:38.159Z,3.42
2019-02-12T00:20:38.149Z,3.31
2019-02-12T00:21:38.135Z,3.40
2019-02-12T00:22:38.127Z,3.33
2019-02-12T00:23:38.131Z,3.47
2019-02-12T00:24:38.108Z,3.36
2019-02-12T00:25:38.088Z,3.39
2019-02-12T00:26:38.087Z,3.34
2019-02-12T00:27:38.082Z,3.39
2019-02-12T00:28:38.066Z,3.31
2019-02-12T00:29:38.099Z,3.40
2019-02-12T00:30:38.041Z,3.40
2019-02-12T00:31:38.024Z,3.31
2019-02-12T00:32:38.017Z,3.34
2019-02-12T00:33:38.012Z,3.34
2019-02-12T00:34:37.998Z,3.36
2019-02-12T00:35:38.005Z,3.31
2019-02-12T00:36:37.982Z,3.33
2019-02-12T00:37:37.968Z,3.33
2019-02-12T00:38:37.952Z,3.31
2019-02-12T00:39:37.943Z,3.36
2019-02-12T00:40:37.949Z,3.33
2019-02-12T00:41:37.918Z,3.24
2019-02-12T00:42:37.909Z,3.33
2019-02-12T00:43:37.893Z,3.21
2019-02-12T00:44:37.893Z,3.27
2019-02-12T00:45:37.877Z,3.33
2019-02-12T00:46:37.870Z,3.28
2019-02-12T00:47:37.849Z,3.36
2019-02-12T00:48:37.840Z,3.25
2019-02-12T00:49:37.900Z,3.27
2019-02-12T00:50:37.818Z,3.33
2019-02-12T00:51:37.818Z,3.30
2019-02-12T00:52:37.805Z,3.30
2019-02-12T00:53:37.792Z,3.31
2019-02-12T00:54:37.780Z,3.21
2019-02-12T00:55:37.780Z,3.25
2019-02-12T00:56:37.762Z,3.21
2019-02-12T00:57:37.770Z,3.16
2019-02-12T00:58:37.734Z,3.12
2019-02-12T00:59:37.723Z,3.21
2019-02-12T01:00:37.708Z,3.15
2019-02-12T01:01:37.706Z,3.09
2019-02-12T01:02:37.691Z,3.15
2019-02-12T01:03:37.685Z,3.12
2019-02-12T01:04:37.669Z,3.20
2019-02-12T01:05:37.668Z,3.09
2019-02-12T01:06:37.642Z,3.07
2019-02-12T01:07:37.638Z,3.03
2019-02-12T01:08:37.665Z,3.03
2019-02-12T01:09:37.643Z,3.03
2019-02-12T01:10:37.599Z,3.05
2019-02-12T01:11:37.595Z,2.97
2019-02-12T01:12:37.579Z,3.00
2019-02-12T01:13:37.565Z,2.95
2019-02-12T01:14:37.562Z,3.02
2019-02-12T01:15:37.601Z,3.00
2019-02-12T01:16:37.541Z,2.97
2019-02-12T01:17:37.523Z,2.95
2019-02-12T01:18:37.517Z,2.91
2019-02-12T01:19:37.506Z,2.95
2019-02-12T01:20:37.494Z,2.91
2019-02-12T01:21:37.526Z,2.81
2019-02-12T01:22:37.486Z,2.85
2019-02-12T01:23:37.459Z,2.89
2019-02-12T01:24:37.450Z,2.95
2019-02-12T01:25:37.437Z,2.88
2019-02-12T01:26:37.429Z,2.88
2019-02-12T01:27:37.428Z,2.84
2019-02-12T01:28:37.402Z,2.79
2019-02-12T01:29:37.402Z,2.88
2019-02-12T01:30:37.381Z,2.88
2019-02-12T01:31:37.437Z,2.84
2019-02-12T01:32:37.408Z,2.82
2019-02-12T01:33:37.350Z,2.88
2019-02-12T01:34:37.337Z,2.84
2019-02-12T01:35:37.332Z,2.94
2019-02-12T01:36:37.316Z,2.95
2019-02-12T01:37:37.325Z,2.92
2019-02-12T01:38:37.300Z,2.94
2019-02-12T01:39:37.290Z,2.94
2019-02-12T01:40:37.278Z,2.98
2019-02-12T01:41:37.269Z,3.06
2019-02-12T01:42:37.250Z,3.02
2019-02-12T01:43:37.274Z,3.07
2019-02-12T01:44:37.228Z,3.02
2019-02-12T01:45:37.232Z,3.05
2019-02-12T01:46:37.211Z,3.02
2019-02-12T01:47:37.292Z,3.00
2019-02-12T01:48:37.186Z,3.02
2019-02-12T01:49:37.180Z,3.07
2019-02-12T01:50:37.169Z,3.10
2019-02-12T01:51:37.153Z,3.10
2019-02-12T01:52:37.143Z,3.13
2019-02-12T01:53:37.175Z,3.09
2019-02-12T01:54:37.152Z,3.09
2019-02-12T01:55:37.115Z,3.09
2019-02-12T01:56:37.101Z,3.07
2019-02-12T01:57:37.089Z,3.12
2019-02-12T01:58:37.144Z,3.09
2019-02-12T01:59:37.067Z,3.06
2019-02-12T02:00:37.057Z,3.21
2019-02-12T02:01:37.047Z,3.25
2019-02-12T02:02:37.043Z,3.10
2019-02-12T02:03:37.028Z,3.12
2019-02-12T02:04:37.044Z,3.20
2019-02-12T02:05:37.014Z,3.28
2019-02-12T02:06:37.023Z,3.23
2019-02-12T02:07:36.978Z,3.27
2019-02-12T02:08:36.971Z,3.23
2019-02-12T02:09:36.957Z,3.28
2019-02-12T02:10:36.947Z,3.23
2019-02-12T02:11:36.973Z,3.25
2019-02-12T02:12:36.925Z,3.39
2019-02-12T02:13:36.917Z,3.21
2019-02-12T02:14:36.908Z,3.31
2019-02-12T02:15:36.896Z,3.31
2019-02-12T02:16:36.890Z,3.36
2019-02-12T02:17:36.869Z,3.33
2019-02-12T02:18:36.885Z,3.34
2019-02-12T02:19:36.857Z,3.33
2019-02-12T02:20:36.838Z,3.36
2019-02-12T02:21:43.955Z,3.40
2019-02-12T02:22:37.847Z,3.31
2019-02-12T02:23:36.805Z,3.31
2019-02-12T02:24:36.793Z,3.28
2019-02-12T02:25:36.788Z,3.31
2019-02-12T02:26:36.775Z,3.39
2019-02-12T02:27:36.771Z,3.33
2019-02-12T02:28:36.754Z,3.31
2019-02-12T02:29:36.750Z,3.34
2019-02-12T02:30:36.753Z,3.34
2019-02-12T02:31:36.718Z,3.39
2019-02-12T02:32:36.706Z,3.36
2019-02-12T02:33:36.710Z,3.34
2019-02-12T02:34:36.689Z,3.40
2019-02-12T02:35:36.682Z,3.31
2019-02-12T02:36:36.665Z,3.34
2019-02-12T02:37:36.653Z,3.47
2019-02-12T02:38:36.707Z,3.39
2019-02-12T02:39:36.630Z,3.39
2019-02-12T02:40:36.622Z,3.44
2019-02-12T02:41:36.615Z,3.44
2019-02-12T02:42:36.600Z,3.42
2019-02-12T02:43:36.590Z,3.31
2019-02-12T02:44:36.597Z,3.36
2019-02-12T02:45:36.569Z,3.33
2019-02-12T02:46:36.556Z,3.33
2019-02-12T02:47:36.548Z,3.31
2019-02-12T02:48:36.550Z,3.40
2019-02-12T02:49:36.519Z,3.40
2019-02-12T02:50:36.509Z,3.27
2019-02-12T02:51:36.507Z,3.30
2019-02-12T02:52:36.532Z,3.24
2019-02-12T02:53:36.476Z,3.31
2019-02-12T02:54:36.471Z,3.25
2019-02-12T02:55:36.462Z,3.31
2019-02-12T02:56:36.445Z,3.24
2019-02-12T02:57:36.433Z,3.24
2019-02-12T02:58:36.455Z,3.30
2019-02-12T02:59:36.411Z,3.33
2019-02-12T03:00:36.401Z,3.36
2019-02-12T03:01:36.394Z,3.24
2019-02-12T03:02:36.383Z,3.27
2019-02-12T03:03:36.437Z,3.30
2019-02-12T03:04:36.357Z,3.31
2019-02-12T03:05:36.350Z,3.31
2019-02-12T03:06:36.343Z,3.36
2019-02-12T03:07:36.328Z,3.24
2019-02-12T03:08:36.319Z,3.23
2019-02-12T03:09:36.349Z,3.30
2019-02-12T03:10:36.292Z,3.31
2019-02-12T03:11:36.289Z,3.30
2019-02-12T03:12:36.268Z,3.31
2019-02-12T03:13:36.260Z,3.20
2019-02-12T03:14:36.247Z,3.20
2019-02-12T03:15:36.270Z,3.25
2019-02-12T03:16:36.230Z,3.25
2019-02-12T03:17:36.216Z,3.10
2019-02-12T03:18:36.213Z,3.10
2019-02-12T03:19:36.199Z,3.10
2019-02-12T03:20:36.205Z,3.13
2019-02-12T03:21:36.171Z,3.10
2019-02-12T03:22:36.159Z,3.02
2019-02-12T03:23:36.149Z,2.97
2019-02-12T03:24:36.161Z,3.05
2019-02-12T03:25:36.194Z,3.02
2019-02-12T03:26:36.120Z,3.07
2019-02-12T03:27:36.124Z,2.97
2019-02-12T03:28:36.142Z,3.02
2019-02-12T03:29:36.083Z,2.94
2019-02-12T03:30:36.084Z,2.95
2019-02-12T03:31:36.096Z,2.92
2019-02-12T03:32:36.052Z,2.95
2019-02-12T03:33:36.045Z,2.81
2019-02-12T03:34:36.028Z,2.82
2019-02-12T03:35:36.022Z,2.84
2019-02-12T03:36:36.040Z,2.84
2019-02-12T03:37:35.996Z,2.81
2019-02-12T03:38:35.985Z,2.84
2019-02-12T03:39:35.981Z,2.81
2019-02-12T03:40:35.963Z,2.76
2019-02-12T03:41:35.980Z,2.81
2019-02-12T03:42:35.951Z,2.74
2019-02-12T03:43:35.933Z,2.70
2019-02-12T03:44:35.919Z,2.73
2019-02-12T03:45:35.913Z,2.67
2019-02-12T03:46:35.898Z,2.70
2019-02-12T03:47:35.957Z,2.76
2019-02-12T03:48:35.882Z,2.71
2019-02-12T03:49:35.870Z,2.73
2019-02-12T03:50:35.858Z,2.71
2019-02-12T03:51:35.846Z,2.74
2019-02-12T03:52:35.843Z,2.74
2019-02-12T03:53:35.838Z,2.71
2019-02-12T03:54:35.818Z,2.70
2019-02-12T03:55:35.806Z,2.67
2019-02-12T03:56:35.792Z,2.64
2019-02-12T03:57:35.782Z,2.70
2019-02-12T03:58:35.897Z,2.69
2019-02-12T03:59:35.767Z,2.69
2019-02-12T04:00:35.752Z,2.63
2019-02-12T04:01:35.735Z,2.70
2019-02-12T04:02:35.729Z,2.76
2019-02-12T04:03:42.612Z,2.74
2019-02-12T04:04:35.736Z,2.67
2019-02-12T04:05:35.699Z,2.70
2019-02-12T04:06:35.681Z,2.66
2019-02-12T04:07:35.671Z,2.70
2019-02-12T04:08:35.659Z,2.66
2019-02-12T04:09:35.661Z,2.73
2019-02-12T04:10:35.644Z,2.70
2019-02-12T04:11:35.632Z,2.73
2019-02-12T04:12:35.628Z,2.77
2019-02-12T04:13:35.610Z,2.76
2019-02-12T04:14:35.628Z,2.84
2019-02-12T04:15:35.584Z,2.82
2019-02-12T04:16:35.582Z,2.84
2019-02-12T04:17:35.562Z,2.84
2019-02-12T04:18:35.551Z,2.84
2019-02-12T04:19:35.607Z,2.82
2019-02-12T04:20:35.535Z,2.82
2019-02-12T04:21:35.528Z,2.82
2019-02-12T04:22:35.510Z,2.91
2019-02-12T04:23:35.500Z,2.82
2019-02-12T04:24:35.489Z,2.81
2019-02-12T04:25:35.487Z,2.82
2019-02-12T04:26:35.536Z,2.81
2019-02-12T04:27:35.462Z,2.95
2019-02-12T04:28:35.443Z,2.95
2019-02-12T04:29:35.438Z,3.00
2019-02-12T04:30:35.433Z,2.95
2019-02-12T04:31:35.410Z,2.94
2019-02-12T04:32:35.408Z,2.81
2019-02-12T04:33:35.390Z,2.94
2019-02-12T04:34:35.383Z,3.00
2019-02-12T04:35:35.368Z,2.97
2019-02-12T04:36:35.375Z,2.97
2019-02-12T04:37:35.351Z,2.95
2019-02-12T04:38:35.379Z,2.97
2019-02-12T04:39:35.323Z,2.97
2019-02-12T04:40:35.340Z,2.94
2019-02-12T04:41:35.305Z,2.95
2019-02-12T04:42:35.293Z,2.94
2019-02-12T04:43:35.325Z,2.97
2019-02-12T04:44:35.272Z,3.00
2019-02-12T04:45:35.262Z,2.92
2019-02-12T04:46:35.247Z,3.02
2019-02-12T04:47:35.238Z,2.98
2019-02-12T04:48:35.226Z,3.02
2019-02-12T04:49:35.239Z,3.03
2019-02-12T04:50:35.204Z,3.07
2019-02-12T04:51:35.193Z,3.05
2019-02-12T04:52:35.180Z,2.98
2019-02-12T04:53:35.189Z,2.98
2019-02-12T04:54:35.193Z,3.03
2019-02-12T04:55:35.215Z,3.09
2019-02-12T04:56:35.140Z,2.98
2019-02-12T04:57:35.141Z,3.06
2019-02-12T04:58:35.120Z,3.02
2019-02-12T04:59:35.105Z,3.07
2019-02-12T05:00:35.098Z,3.02
2019-02-12T05:01:35.098Z,3.02
2019-02-12T05:02:35.073Z,3.02
2019-02-12T05:03:35.067Z,3.03
2019-02-12T05:04:35.085Z,3.00
2019-02-12T05:05:35.044Z,2.97
2019-02-12T05:06:35.032Z,2.97
2019-02-12T05:07:35.055Z,3.09
2019-02-12T05:08:35.012Z,2.97
2019-02-12T05:09:35.003Z,2.98
2019-02-12T05:10:34.988Z,3.00
2019-02-12T05:11:34.980Z,2.95
2019-02-12T05:12:34.998Z,3.00
2019-02-12T05:13:34.953Z,3.03
2019-02-12T05:14:34.941Z,2.98
2019-02-12T05:15:35.042Z,2.98
2019-02-12T05:16:34.919Z,3.02
2019-02-12T05:17:34.915Z,2.89
2019-02-12T05:18:34.899Z,2.94
2019-02-12T05:19:34.886Z,2.97
2019-02-12T05:20:34.876Z,2.91
2019-02-12T05:21:34.907Z,2.92
2019-02-12T05:22:43.102Z,2.95
2019-02-12T05:23:35.848Z,2.95
2019-02-12T05:24:34.839Z,2.89
2019-02-12T05:25:34.829Z,2.95
2019-02-12T05:26:34.817Z,2.98
2019-02-12T05:27:34.818Z,2.89
2019-02-12T05:28:34.792Z,2.95
2019-02-12T05:29:34.779Z,2.92
2019-02-12T05:30:34.773Z,2.98
2019-02-12T05:31:34.756Z,3.06
2019-02-12T05:32:34.780Z,3.00
2019-02-12T05:33:34.740Z,3.06
2019-02-12T05:34:34.723Z,3.07
2019-02-12T05:35:34.716Z,3.00
2019-02-12T05:36:34.702Z,3.00
2019-02-12T05:37:34.699Z,3.05
2019-02-12T05:38:34.712Z,3.00
2019-02-12T05:39:34.669Z,3.02
2019-02-12T05:40:34.659Z,3.03
2019-02-12T05:41:34.690Z,3.03
2019-02-12T05:42:34.642Z,3.02
2019-02-12T05:43:34.631Z,3.02
2019-02-12T05:44:34.616Z,3.05
2019-02-12T05:45:34.608Z,2.94
2019-02-12T05:46:34.665Z,3.02
2019-02-12T05:47:34.588Z,2.97
2019-02-12T05:48:34.574Z,3.00
2019-02-12T05:49:34.561Z,2.98
2019-02-12T05:50:34.548Z,2.98
2019-02-12T05:51:34.537Z,2.94
2019-02-12T05:52:34.570Z,2.92
2019-02-12T05:53:34.516Z,2.92
2019-02-12T05:54:34.507Z,2.82
2019-02-12T05:55:34.495Z,2.82
2019-02-12T05:56:34.489Z,2.82
2019-02-12T05:57:34.485Z,2.87
2019-02-12T05:58:34.486Z,2.85
2019-02-12T05:59:34.475Z,2.77
2019-02-12T06:00:34.445Z,2.81
2019-02-12T06:01:34.428Z,2.87
2019-02-12T06:02:34.453Z,2.81
2019-02-12T06:03:34.417Z,2.82
2019-02-12T06:04:34.469Z,2.84
2019-02-12T06:05:34.392Z,2.74
2019-02-12T06:06:34.380Z,2.81
2019-02-12T06:07:34.373Z,2.73
2019-02-12T06:08:34.370Z,2.81
2019-02-12T06:09:34.346Z,2.70
2019-02-12T06:10:34.348Z,2.71
2019-02-12T06:11:34.327Z,2.69
2019-02-12T06:12:34.313Z,2.66
2019-02-12T06:13:34.302Z,2.70
2019-02-12T06:14:34.327Z,2.71
2019-02-12T06:15:34.301Z,2.70
2019-02-12T06:16:34.266Z,2.71
2019-02-12T06:17:34.255Z,2.69
2019-02-12T06:18:34.244Z,2.66
2019-02-12T06:19:34.239Z,2.66
2019-02-12T06:20:34.262Z,2.70
2019-02-12T06:21:34.215Z,2.73
2019-02-12T06:22:34.202Z,2.71
2019-02-12T06:23:34.196Z,2.67
2019-02-12T06:24:34.182Z,2.69
2019-02-12T06:25:34.213Z,2.59
2019-02-12T06:26:34.189Z,2.63
2019-02-12T06:27:34.153Z,2.51
2019-02-12T06:28:34.140Z,2.64
2019-02-12T06:29:34.130Z,2.66
2019-02-12T06:30:34.147Z,2.69
2019-02-12T06:31:34.137Z,2.67
2019-02-12T06:32:34.126Z,2.70
2019-02-12T06:33:34.081Z,2.63
2019-02-12T06:34:34.075Z,2.70
2019-02-12T06:35:34.064Z,2.69
2019-02-12T06:36:34.088Z,2.71
2019-02-12T06:37:34.041Z,2.67
2019-02-12T06:38:34.026Z,2.70
2019-02-12T06:39:34.020Z,2.71
2019-02-12T06:40:34.013Z,2.73
2019-02-12T06:41:33.997Z,2.71
2019-02-12T06:42:34.022Z,2.77
2019-02-12T06:43:34.043Z,2.79
2019-02-12T06:44:33.969Z,2.77
2019-02-12T06:45:33.956Z,2.84
2019-02-12T06:46:33.947Z,2.89
2019-02-12T06:47:33.929Z,2.79
2019-02-12T06:48:33.919Z,2.91
2019-02-12T06:49:33.952Z,2.91
2019-02-12T06:50:33.902Z,2.92
2019-02-12T06:51:33.895Z,3.03
2019-02-12T06:52:33.875Z,3.05
2019-02-12T06:53:33.870Z,3.00
2019-02-12T06:54:33.888Z,2.94
2019-02-12T06:55:33.843Z,3.03
2019-02-12T06:56:33.835Z,2.98
2019-02-12T06:57:33.826Z,3.03
2019-02-12T06:58:33.814Z,3.07
2019-02-12T06:59:33.835Z,3.12
2019-02-12T07:00:33.797Z,3.09
2019-02-12T07:01:33.788Z,3.12
2019-02-12T07:02:33.772Z,3.09
2019-02-12T07:03:33.761Z,3.09
2019-02-12T07:04:33.766Z,3.09
2019-02-12T07:05:33.740Z,3.12
2019-02-12T07:06:33.725Z,3.12
2019-02-12T07:07:33.716Z,3.06
2019-02-12T07:08:33.728Z,3.13
2019-02-12T07:09:33.694Z,3.16
2019-02-12T07:10:33.683Z,3.10
2019-02-12T07:11:33.672Z,3.12
2019-02-12T07:12:33.663Z,3.12
2019-02-12T07:13:33.655Z,3.15
2019-02-12T07:14:33.641Z,3.12
2019-02-12T07:15:33.629Z,3.10
2019-02-12T07:16:33.617Z,3.12
2019-02-12T07:17:33.605Z,3.20
2019-02-12T07:18:33.605Z,3.18
2019-02-12T07:19:33.586Z,3.21
2019-02-12T07:20:33.576Z,3.21
2019-02-12T07:21:33.605Z,3.20
2019-02-12T07:22:33.549Z,3.21
2019-02-12T07:23:33.537Z,3.28
2019-02-12T07:24:33.593Z,3.27
2019-02-12T07:25:33.514Z,3.21
2019-02-12T07:26:33.510Z,3.25
2019-02-12T07:27:33.518Z,3.28
2019-02-12T07:28:33.483Z,3.30
2019-02-12T07:29:33.481Z,3.23
2019-02-12T07:30:33.495Z,3.30
2019-02-12T07:31:34.722Z,3.33
2019-02-12T07:32:33.454Z,3.39
2019-02-12T07:33:33.458Z,3.34
2019-02-12T07:34:33.420Z,3.30
2019-02-12T07:35:33.415Z,3.39
2019-02-12T07:36:33.404Z,3.31
2019-02-12T07:37:33.418Z,3.31
2019-02-12T07:38:33.387Z,3.36
2019-02-12T07:39:33.363Z,3.36
2019-02-12T07:40:33.355Z,3.30
2019-02-12T07:41:33.344Z,3.30
2019-02-12T07:42:33.366Z,3.40
2019-02-12T07:43:33.324Z,3.33
2019-02-12T07:44:33.315Z,3.25
2019-02-12T07:45:33.302Z,3.31
2019-02-12T07:46:33.312Z,3.33
2019-02-12T07:47:33.280Z,3.33
2019-02-12T07:48:33.268Z,3.33
2019-02-12T07:49:33.258Z,3.23
2019-02-12T07:50:33.250Z,3.30
2019-02-12T07:51:33.280Z,3.33
2019-02-12T07:52:33.220Z,3.33
2019-02-12T07:53:33.215Z,3.31
2019-02-12T07:54:33.204Z,3.27
2019-02-12T07:55:33.194Z,3.31
2019-02-12T07:56:33.213Z,3.36
2019-02-12T07:57:33.209Z,3.33
2019-02-12T07:58:33.155Z,3.27
2019-02-12T07:59:33.148Z,3.33
2019-02-12T08:00:33.135Z,3.27
2019-02-12T08:01:33.121Z,3.33
2019-02-12T08:02:33.822Z,3.31
2019-02-12T08:03:33.131Z,3.31
2019-02-12T08:04:33.095Z,3.43
2019-02-12T08:05:33.079Z,3.42
2019-02-12T08:06:33.074Z,3.57
2019-02-12T08:07:33.057Z,3.64
2019-02-12T08:08:33.045Z,3.76
2019-02-12T08:09:33.086Z,3.80
2019-02-12T08:10:33.032Z,3.78
2019-02-12T08:11:33.021Z,3.75
2019-02-12T08:12:33.010Z,3.68
2019-02-12T08:13:32.992Z,3.82
2019-02-12T08:14:33.064Z,3.78
2019-02-12T08:15:32.987Z,3.96
2019-02-12T08:16:32.959Z,3.92
2019-02-12T08:17:32.952Z,3.96
2019-02-12T08:18:32.941Z,3.97
2019-02-12T08:19:32.928Z,3.90
2019-02-12T08:20:32.973Z,3.88
2019-02-12T08:21:32.912Z,3.94
2019-02-12T08:22:32.900Z,3.88
2019-02-12T08:23:41.099Z,3.83
2019-02-12T08:24:33.876Z,3.79
2019-02-12T08:25:32.868Z,3.75
2019-02-12T08:26:32.880Z,3.70
2019-02-12T08:27:32.841Z,3.65
2019-02-12T08:28:32.834Z,3.71
2019-02-12T08:29:32.841Z,3.72
2019-02-12T08:30:32.807Z,3.76
2019-02-12T08:31:32.808Z,3.67
2019-02-12T08:32:32.787Z,3.64
2019-02-12T08:33:32.777Z,3.62
2019-02-12T08:34:32.765Z,3.64
2019-02-12T08:35:32.763Z,3.64
2019-02-12T08:36:32.810Z,3.70
2019-02-12T08:37:32.733Z,3.78
2019-02-12T08:38:32.728Z,3.80
2019-02-12T08:39:32.712Z,3.82
2019-02-12T08:40:32.731Z,3.82
2019-02-12T08:41:32.689Z,3.82
2019-02-12T08:42:32.708Z,3.79
2019-02-12T08:43:32.672Z,3.80
2019-02-12T08:44:32.656Z,3.89
2019-02-12T08:45:32.655Z,3.97
2019-02-12T08:46:32.640Z,4.01
2019-02-12T08:47:32.630Z,4.15
2019-02-12T08:48:32.663Z,4.22
2019-02-12T08:49:32.601Z,4.24
2019-02-12T08:50:32.602Z,4.36
2019-02-12T08:51:32.582Z,4.28
2019-02-12T08:52:32.572Z,4.51
2019-02-12T08:53:32.559Z,4.44
2019-02-12T08:54:32.588Z,4.57
2019-02-12T08:55:32.537Z,4.55
2019-02-12T08:56:32.527Z,4.54
2019-02-12T08:57:32.652Z,4.54
2019-02-12T08:58:32.540Z,4.64
2019-02-12T08:59:32.497Z,4.62
2019-02-12T09:00:32.481Z,4.75
2019-02-12T09:01:32.476Z,4.72
2019-02-12T09:02:32.468Z,4.76
2019-02-12T09:03:32.554Z,4.83
2019-02-12T09:04:32.436Z,4.91
2019-02-12T09:05:32.487Z,5.04
2019-02-12T09:06:32.415Z,5.20
2019-02-12T09:07:32.410Z,5.14
2019-02-12T09:08:32.396Z,5.12
2019-02-12T09:09:32.418Z,5.02
2019-02-12T09:10:32.404Z,4.94
2019-02-12T09:11:32.366Z,4.99
2019-02-12T09:12:32.351Z,4.99
2019-02-12T09:13:32.347Z,5.09
2019-02-12T09:14:32.332Z,5.13
2019-02-12T09:15:32.351Z,5.37
2019-02-12T09:16:32.307Z,5.50
2019-02-12T09:17:32.300Z,5.73
2019-02-12T09:18:32.290Z,5.70
2019-02-12T09:19:32.272Z,5.73
2019-02-12T09:20:32.330Z,5.91
2019-02-12T09:21:32.259Z,5.95
2019-02-12T09:22:32.240Z,6.00
2019-02-12T09:23:32.238Z,6.10
2019-02-12T09:24:32.224Z,6.44
2019-02-12T09:25:32.277Z,6.54
2019-02-12T09:26:32.197Z,6.69
2019-02-12T09:27:32.191Z,6.62
2019-02-12T09:28:32.178Z,6.61
2019-02-12T09:29:32.166Z,6.53
2019-02-12T09:30:32.201Z,6.71
2019-02-12T09:31:32.148Z,6.69
2019-02-12T09:32:32.142Z,6.33
2019-02-12T09:33:32.125Z,6.06
2019-02-12T09:34:32.109Z,6.01
2019-02-12T09:35:32.104Z,6.00
2019-02-12T09:36:32.132Z,5.98
2019-02-12T09:37:33.949Z,5.92
2019-02-12T09:38:32.070Z,5.91
2019-02-12T09:39:32.053Z,5.95
2019-02-12T09:40:32.049Z,5.89
2019-02-12T09:41:32.035Z,5.85
2019-02-12T09:42:32.063Z,5.85
2019-02-12T09:43:32.012Z,5.86
2019-02-12T09:44:32.005Z,5.83
2019-02-12T09:45:31.991Z,5.88
2019-02-12T09:46:31.982Z,5.98
2019-02-12T09:47:31.991Z,5.88
2019-02-12T09:48:31.960Z,5.82
2019-02-12T09:49:31.945Z,5.66
2019-02-12T09:50:31.935Z,5.73
2019-02-12T09:51:31.928Z,5.86
2019-02-12T09:52:31.980Z,5.92
2019-02-12T09:53:31.905Z,5.92
2019-02-12T09:54:31.894Z,5.89
2019-02-12T09:55:31.888Z,5.77
2019-02-12T09:56:31.871Z,5.75
2019-02-12T09:57:31.857Z,5.82
2019-02-12T09:58:31.914Z,5.95
2019-02-12T09:59:31.834Z,6.32
2019-02-12T10:00:31.833Z,6.36
2019-02-12T10:01:31.817Z,6.61
2019-02-12T10:02:31.811Z,7.08
2019-02-12T10:03:31.791Z,6.81
2019-02-12T10:04:31.809Z,6.73
2019-02-12T10:05:31.770Z,6.84
2019-02-12T10:06:31.764Z,6.76
2019-02-12T10:07:31.764Z,6.62
2019-02-12T10:08:31.737Z,6.69
2019-02-12T10:09:31.784Z,6.76
2019-02-12T10:10:31.721Z,6.51
2019-02-12T10:11:31.708Z,6.44
2019-02-12T10:12:31.695Z,6.46
2019-02-12T10:13:31.680Z,6.72
2019-02-12T10:14:31.672Z,7.04
2019-02-12T10:15:31.692Z,7.02
2019-02-12T10:16:31.654Z,7.24
2019-02-12T10:17:31.637Z,7.09
2019-02-12T10:18:31.626Z,6.86
2019-02-12T10:19:31.614Z,6.72
2019-02-12T10:20:31.638Z,6.79
2019-02-12T10:21:31.604Z,6.81
2019-02-12T10:22:31.587Z,6.89
2019-02-12T10:23:31.574Z,6.76
2019-02-12T10:24:31.562Z,6.79
2019-02-12T10:25:31.555Z,6.72
2019-02-12T10:26:31.579Z,6.62
2019-02-12T10:27:31.527Z,6.61
2019-02-12T10:28:31.521Z,6.47
2019-02-12T10:29:31.509Z,6.43
2019-02-12T10:30:31.500Z,6.38
2019-02-12T10:31:31.517Z,6.41
2019-02-12T10:32:31.472Z,6.61
2019-02-12T10:33:31.504Z,7.12
2019-02-12T10:34:31.451Z,7.67
2019-02-12T10:35:31.442Z,8.03
2019-02-12T10:36:31.438Z,8.29
2019-02-12T10:37:31.422Z,8.03
2019-02-12T10:38:31.440Z,7.81
2019-02-12T10:39:31.399Z,8.39
2019-02-12T10:40:31.386Z,8.29
2019-02-12T10:41:31.373Z,8.12
2019-02-12T10:42:31.368Z,7.84
2019-02-12T10:43:31.417Z,7.60
2019-02-12T10:44:31.339Z,7.45
2019-02-12T10:45:31.331Z,7.40
2019-02-12T10:46:31.320Z,7.26
2019-02-12T10:47:31.315Z,7.17
2019-02-12T10:48:31.304Z,7.07
2019-02-12T10:49:31.319Z,6.99
2019-02-12T10:50:31.280Z,7.04
2019-02-12T10:51:31.264Z,7.12
2019-02-12T10:52:31.257Z,7.97
2019-02-12T10:53:31.248Z,8.65
2019-02-12T10:54:31.265Z,9.24
2019-02-12T10:55:31.227Z,9.73
2019-02-12T10:56:31.215Z,10.14
2019-02-12T10:57:31.206Z,10.32
2019-02-12T10:58:31.189Z,10.74
2019-02-12T10:59:31.200Z,10.96
2019-02-12T11:00:31.168Z,10.24
2019-02-12T11:01:31.162Z,10.15
2019-02-12T11:02:31.145Z,9.45
2019-02-12T11:03:31.138Z,9.04
2019-02-12T11:04:31.178Z,9.02
2019-02-12T11:05:31.113Z,9.25
2019-02-12T11:06:31.106Z,9.99
2019-02-12T11:07:31.096Z,10.52
2019-02-12T11:08:31.084Z,10.21
2019-02-12T11:09:31.067Z,9.85
2019-02-12T11:10:31.090Z,10.25
2019-02-12T11:11:31.045Z,10.58
2019-02-12T11:12:31.040Z,10.96
2019-02-12T11:13:31.027Z,11.17
2019-02-12T11:14:31.011Z,11.56
2019-02-12T11:15:31.021Z,11.59
2019-02-12T11:16:31.013Z,11.83
2019-02-12T11:17:30.986Z,12.08
2019-02-12T11:18:30.974Z,12.29
2019-02-12T11:19:30.961Z,12.38
2019-02-12T11:20:30.948Z,12.56
2019-02-12T11:21:30.960Z,12.37
2019-02-12T11:22:30.931Z,11.75
2019-02-12T11:23:30.915Z,11.17
2019-02-12T11:24:35.610Z,10.43
2019-02-12T11:25:30.896Z,10.18
2019-02-12T11:26:30.901Z,9.83
2019-02-12T11:27:30.874Z,9.71
2019-02-12T11:28:30.858Z,9.34
2019-02-12T11:29:30.851Z,9.15
2019-02-12T11:30:30.842Z,8.73
2019-02-12T11:31:30.848Z,8.55
2019-02-12T11:32:30.848Z,8.26
2019-02-12T11:33:30.824Z,8.11
2019-02-12T11:34:30.797Z,8.26
2019-02-12T11:35:30.786Z,8.53
2019-02-12T11:36:30.776Z,8.08
2019-02-12T11:37:30.801Z,8.37
2019-02-12T11:38:30.753Z,9.31
2019-02-12T11:39:30.744Z,9.79
2019-02-12T11:40:30.730Z,9.31
2019-02-12T11:41:30.783Z,9.10
2019-02-12T11:42:30.708Z,8.86
2019-02-12T11:43:30.693Z,8.47
2019-02-12T11:44:30.685Z,8.42
2019-02-12T11:45:30.672Z,8.18
2019-02-12T11:46:30.659Z,7.92
2019-02-12T11:47:30.682Z,7.71
2019-02-12T11:48:30.638Z,7.55
2019-02-12T11:49:30.628Z,7.42
2019-02-12T11:50:30.629Z,7.74
2019-02-12T11:51:30.605Z,8.63
2019-02-12T11:52:30.628Z,9.31
2019-02-12T11:53:30.588Z,9.73
2019-02-12T11:54:30.577Z,10.03
2019-02-12T11:55:30.561Z,10.01
2019-02-12T11:56:30.551Z,9.89
2019-02-12T11:57:30.572Z,9.60
2019-02-12T11:58:30.571Z,9.02
2019-02-12T11:59:30.533Z,8.62
2019-02-12T12:00:30.505Z,8.39
2019-02-12T12:01:30.496Z,8.32
2019-02-12T12:02:30.488Z,8.03
2019-02-12T12:03:30.474Z,8.48
2019-02-12T12:04:30.483Z,9.12
2019-02-12T12:05:30.451Z,9.58
2019-02-12T12:06:30.439Z,10.09
2019-02-12T12:07:30.449Z,10.39
2019-02-12T12:08:30.420Z,10.76
2019-02-12T12:09:30.465Z,10.91
2019-02-12T12:10:30.395Z,10.92
2019-02-12T12:11:30.386Z,10.99
2019-02-12T12:12:30.380Z,11.34
2019-02-12T12:13:30.369Z,11.27
2019-02-12T12:14:30.355Z,11.21
2019-02-12T12:15:30.379Z,11.21
2019-02-12T12:16:30.334Z,10.80
2019-02-12T12:17:30.325Z,10.59
2019-02-12T12:18:30.307Z,10.28
2019-02-12T12:19:30.300Z,9.89
2019-02-12T12:20:30.309Z,9.57
2019-02-12T12:21:30.279Z,9.06
2019-02-12T12:22:30.268Z,8.84
2019-02-12T12:23:30.252Z,8.63
2019-02-12T12:24:30.245Z,8.40
2019-02-12T12:25:30.263Z,8.12
2019-02-12T12:26:30.253Z,7.97
2019-02-12T12:27:30.207Z,7.84
2019-02-12T12:28:30.204Z,7.67
2019-02-12T12:29:30.190Z,7.72
2019-02-12T12:30:30.209Z,7.74
2019-02-12T12:31:30.209Z,8.10
2019-02-12T12:32:30.158Z,8.42
2019-02-12T12:33:30.147Z,8.69
2019-02-12T12:34:30.129Z,8.97
2019-02-12T12:35:30.127Z,9.06
2019-02-12T12:36:30.113Z,9.02
2019-02-12T12:37:30.132Z,8.91
2019-02-12T12:38:30.087Z,8.62
2019-02-12T12:39:30.076Z,8.50
2019-02-12T12:40:30.066Z,8.39
2019-02-12T12:41:30.053Z,8.37
2019-02-12T12:42:30.061Z,8.29
2019-02-12T12:43:30.045Z,8.12
2019-02-12T12:44:30.025Z,7.96
2019-02-12T12:45:30.009Z,7.93
2019-02-12T12:46:30.004Z,7.74
2019-02-12T12:47:30.024Z,7.71
2019-02-12T12:48:29.977Z,7.71
2019-02-12T12:49:29.970Z,7.71
2019-02-12T12:50:29.960Z,7.66
2019-02-12T12:51:29.943Z,7.60
2019-02-12T12:52:29.977Z,7.63
2019-02-12T12:53:29.921Z,7.62
2019-02-12T12:54:29.920Z,7.62
2019-02-12T12:55:29.916Z,7.78
2019-02-12T12:56:29.893Z,7.71
2019-02-12T12:57:29.885Z,7.50
2019-02-12T12:58:29.902Z,7.41
2019-02-12T12:59:29.857Z,7.26
2019-02-12T13:00:29.851Z,7.12
2019-02-12T13:01:29.840Z,7.09
2019-02-12T13:02:29.829Z,7.07
2019-02-12T13:03:29.843Z,7.07
2019-02-12T13:04:29.806Z,7.17
2019-02-12T13:05:29.797Z,7.29
2019-02-12T13:06:29.783Z,7.44
2019-02-12T13:07:29.776Z,7.99
2019-02-12T13:08:29.780Z,8.54
2019-02-12T13:09:29.752Z,9.13
2019-02-12T13:10:29.770Z,9.68
2019-02-12T13:11:29.725Z,9.99
2019-02-12T13:12:30.317Z,10.19
2019-02-12T13:13:29.703Z,10.28
2019-02-12T13:14:31.066Z,10.10
2019-02-12T13:15:29.681Z,10.00
2019-02-12T13:16:29.676Z,10.07